sensor_id;sensor_type;location;lat;lon;timestamp;temperature;humidity
6307;DHT22;3186;54.062;9.962;2023-06-14T00:02:06;19.60;1.00
6307;DHT22;3186;54.062;9.962;2023-06-14T00:04:35;19.50;1.00
6307;DHT22;3186;54.062;9.962;2023-06-14T00:07:01;19.50;1.00
6307;DHT22;3186;54.062;9.962;2023-06-14T00:09:27;19.50;1.40
6307;DHT22;3186;54.062;9.962;2023-06-14T00:11:53;19.50;1.00
6307;DHT22;3186;54.062;9.962;2023-06-14T00:14:19;19.50;1.90
6307;DHT22;3186;54.062;9.962;2023-06-14T00:16:45;19.40;1.50
6307;DHT22;3186;54.062;9.962;2023-06-14T00:19:11;19.40;2.70
6307;DHT22;3186;54.062;9.962;2023-06-14T00:21:37;19.40;2.50
6307;DHT22;3186;54.062;9.962;2023-06-14T00:24:04;19.40;2.70
6307;DHT22;3186;54.062;9.962;2023-06-14T00:26:30;19.30;2.10
6307;DHT22;3186;54.062;9.962;2023-06-14T00:28:56;19.30;2.90
6307;DHT22;3186;54.062;9.962;2023-06-14T00:31:23;19.30;4.00
6307;DHT22;3186;54.062;9.962;2023-06-14T00:36:15;19.20;3.50
6307;DHT22;3186;54.062;9.962;2023-06-14T00:38:42;19.40;4.70
6307;DHT22;3186;54.062;9.962;2023-06-14T00:41:08;19.20;4.80
6307;DHT22;3186;54.062;9.962;2023-06-14T00:43:34;19.10;4.90
6307;DHT22;3186;54.062;9.962;2023-06-14T00:46:00;19.10;4.90
6307;DHT22;3186;54.062;9.962;2023-06-14T00:48:27;19.10;5.90
6307;DHT22;3186;54.062;9.962;2023-06-14T00:50:53;19.10;6.00
6307;DHT22;3186;54.062;9.962;2023-06-14T00:53:19;19.10;6.40
6307;DHT22;3186;54.062;9.962;2023-06-14T00:55:48;19.00;6.70
6307;DHT22;3186;54.062;9.962;2023-06-14T00:58:16;19.00;7.00
6307;DHT22;3186;54.062;9.962;2023-06-14T01:00:42;19.00;7.80
6307;DHT22;3186;54.062;9.962;2023-06-14T01:03:08;19.00;9.40
6307;DHT22;3186;54.062;9.962;2023-06-14T01:13:27;18.80;10.40
6307;DHT22;3186;54.062;9.962;2023-06-14T01:15:55;18.90;9.90
6307;DHT22;3186;54.062;9.962;2023-06-14T01:18:22;18.80;10.50
6307;DHT22;3186;54.062;9.962;2023-06-14T01:20:50;18.80;10.30
6307;DHT22;3186;54.062;9.962;2023-06-14T01:23:20;18.80;10.80
6307;DHT22;3186;54.062;9.962;2023-06-14T01:25:47;18.70;11.50
6307;DHT22;3186;54.062;9.962;2023-06-14T01:28:15;18.70;12.50
6307;DHT22;3186;54.062;9.962;2023-06-14T01:30:44;18.60;11.50
6307;DHT22;3186;54.062;9.962;2023-06-14T01:33:26;18.60;11.70
6307;DHT22;3186;54.062;9.962;2023-06-14T01:35:53;18.50;12.00
6307;DHT22;3186;54.062;9.962;2023-06-14T01:38:22;18.50;12.50
6307;DHT22;3186;54.062;9.962;2023-06-14T01:40:50;18.50;14.30
6307;DHT22;3186;54.062;9.962;2023-06-14T01:43:18;18.50;14.20
6307;DHT22;3186;54.062;9.962;2023-06-14T01:45:46;18.50;14.40
6307;DHT22;3186;54.062;9.962;2023-06-14T01:48:14;18.40;16.90
6307;DHT22;3186;54.062;9.962;2023-06-14T01:50:40;18.40;16.10
6307;DHT22;3186;54.062;9.962;2023-06-14T01:53:10;18.30;17.10
6307;DHT22;3186;54.062;9.962;2023-06-14T01:55:37;18.30;18.30
6307;DHT22;3186;54.062;9.962;2023-06-14T01:58:06;18.30;17.20
6307;DHT22;3186;54.062;9.962;2023-06-14T02:00:32;18.30;17.50
6307;DHT22;3186;54.062;9.962;2023-06-14T02:02:58;18.30;18.10
6307;DHT22;3186;54.062;9.962;2023-06-14T02:07:52;18.20;17.20
6307;DHT22;3186;54.062;9.962;2023-06-14T02:10:19;18.20;19.70
6307;DHT22;3186;54.062;9.962;2023-06-14T02:12:46;18.20;19.50
6307;DHT22;3186;54.062;9.962;2023-06-14T02:15:12;18.20;19.70
6307;DHT22;3186;54.062;9.962;2023-06-14T02:17:48;18.10;20.80
6307;DHT22;3186;54.062;9.962;2023-06-14T02:20:16;18.10;21.00
6307;DHT22;3186;54.062;9.962;2023-06-14T02:22:42;18.10;21.30
6307;DHT22;3186;54.062;9.962;2023-06-14T02:25:08;18.10;21.50
6307;DHT22;3186;54.062;9.962;2023-06-14T02:27:35;18.10;21.60
6307;DHT22;3186;54.062;9.962;2023-06-14T02:30:03;18.10;21.70
6307;DHT22;3186;54.062;9.962;2023-06-14T02:32:32;18.00;22.70
6307;DHT22;3186;54.062;9.962;2023-06-14T02:34:59;18.00;22.60
6307;DHT22;3186;54.062;9.962;2023-06-14T02:37:25;18.00;22.80
6307;DHT22;3186;54.062;9.962;2023-06-14T02:39:52;17.90;23.80
6307;DHT22;3186;54.062;9.962;2023-06-14T02:42:18;17.90;23.20
6307;DHT22;3186;54.062;9.962;2023-06-14T02:44:44;17.90;25.00
6307;DHT22;3186;54.062;9.962;2023-06-14T02:47:12;17.90;24.40
6307;DHT22;3186;54.062;9.962;2023-06-14T02:49:38;17.90;25.00
6307;DHT22;3186;54.062;9.962;2023-06-14T02:52:03;17.80;24.90
6307;DHT22;3186;54.062;9.962;2023-06-14T02:56:57;17.80;25.10
6307;DHT22;3186;54.062;9.962;2023-06-14T02:59:23;17.80;26.70
6307;DHT22;3186;54.062;9.962;2023-06-14T03:01:52;17.80;26.50
6307;DHT22;3186;54.062;9.962;2023-06-14T03:04:18;17.80;26.70
6307;DHT22;3186;54.062;9.962;2023-06-14T03:06:45;17.70;26.80
6307;DHT22;3186;54.062;9.962;2023-06-14T03:09:18;17.70;26.90
6307;DHT22;3186;54.062;9.962;2023-06-14T03:11:45;17.70;27.60
6307;DHT22;3186;54.062;9.962;2023-06-14T03:14:11;17.70;28.70
6307;DHT22;3186;54.062;9.962;2023-06-14T03:16:39;17.70;27.60
6307;DHT22;3186;54.062;9.962;2023-06-14T03:19:08;17.70;28.90
6307;DHT22;3186;54.062;9.962;2023-06-14T03:21:34;17.70;29.20
6307;DHT22;3186;54.062;9.962;2023-06-14T03:24:02;17.60;29.30
6307;DHT22;3186;54.062;9.962;2023-06-14T03:26:29;17.60;29.70
6307;DHT22;3186;54.062;9.962;2023-06-14T03:28:59;17.60;29.60
6307;DHT22;3186;54.062;9.962;2023-06-14T03:31:25;17.60;29.50
6307;DHT22;3186;54.062;9.962;2023-06-14T03:33:50;17.60;29.30
6307;DHT22;3186;54.062;9.962;2023-06-14T03:36:18;17.50;30.00
6307;DHT22;3186;54.062;9.962;2023-06-14T03:38:44;17.50;31.60
6307;DHT22;3186;54.062;9.962;2023-06-14T03:41:11;17.50;31.20
6307;DHT22;3186;54.062;9.962;2023-06-14T03:43:37;17.50;32.10
6307;DHT22;3186;54.062;9.962;2023-06-14T03:46:03;17.50;31.20
6307;DHT22;3186;54.062;9.962;2023-06-14T03:48:31;17.50;32.40
6307;DHT22;3186;54.062;9.962;2023-06-14T03:50:57;17.50;34.00
6307;DHT22;3186;54.062;9.962;2023-06-14T03:53:23;17.50;34.00
6307;DHT22;3186;54.062;9.962;2023-06-14T03:55:52;17.50;34.10
6307;DHT22;3186;54.062;9.962;2023-06-14T03:58:19;17.40;34.20
6307;DHT22;3186;54.062;9.962;2023-06-14T04:00:46;17.40;36.20
6307;DHT22;3186;54.062;9.962;2023-06-14T04:03:12;17.50;35.60
6307;DHT22;3186;54.062;9.962;2023-06-14T04:05:42;17.40;36.20
6307;DHT22;3186;54.062;9.962;2023-06-14T04:08:09;17.50;38.60
6307;DHT22;3186;54.062;9.962;2023-06-14T04:10:36;17.40;39.30
6307;DHT22;3186;54.062;9.962;2023-06-14T04:13:02;17.40;38.50
6307;DHT22;3186;54.062;9.962;2023-06-14T04:15:28;17.40;39.00
6307;DHT22;3186;54.062;9.962;2023-06-14T04:20:23;17.40;41.60
6307;DHT22;3186;54.062;9.962;2023-06-14T04:22:52;17.40;42.00
6307;DHT22;3186;54.062;9.962;2023-06-14T04:25:19;17.50;41.70
6307;DHT22;3186;54.062;9.962;2023-06-14T04:27:46;17.40;41.40
6307;DHT22;3186;54.062;9.962;2023-06-14T04:30:13;17.40;46.90
6307;DHT22;3186;54.062;9.962;2023-06-14T04:32:47;17.40;44.50
6307;DHT22;3186;54.062;9.962;2023-06-14T04:35:15;17.50;47.10
6307;DHT22;3186;54.062;9.962;2023-06-14T04:37:43;17.50;44.10
6307;DHT22;3186;54.062;9.962;2023-06-14T04:40:11;17.40;48.60
6307;DHT22;3186;54.062;9.962;2023-06-14T04:42:38;17.40;45.80
6307;DHT22;3186;54.062;9.962;2023-06-14T04:45:07;17.40;45.10
6307;DHT22;3186;54.062;9.962;2023-06-14T04:47:35;17.40;62.70
6307;DHT22;3186;54.062;9.962;2023-06-14T04:50:05;17.30;49.40
6307;DHT22;3186;54.062;9.962;2023-06-14T04:52:31;17.30;48.20
6307;DHT22;3186;54.062;9.962;2023-06-14T04:54:59;17.40;50.20
6307;DHT22;3186;54.062;9.962;2023-06-14T04:57:26;17.30;57.90
6307;DHT22;3186;54.062;9.962;2023-06-14T04:59:55;17.30;55.40
6307;DHT22;3186;54.062;9.962;2023-06-14T05:02:24;17.30;54.10
6307;DHT22;3186;54.062;9.962;2023-06-14T05:04:52;17.40;54.40
6307;DHT22;3186;54.062;9.962;2023-06-14T05:07:18;17.40;54.00
6307;DHT22;3186;54.062;9.962;2023-06-14T05:09:45;17.40;52.20
6307;DHT22;3186;54.062;9.962;2023-06-14T05:14:38;17.40;52.80
6307;DHT22;3186;54.062;9.962;2023-06-14T05:17:06;17.40;53.90
6307;DHT22;3186;54.062;9.962;2023-06-14T05:19:31;17.50;56.00
6307;DHT22;3186;54.062;9.962;2023-06-14T05:21:57;17.50;52.40
6307;DHT22;3186;54.062;9.962;2023-06-14T05:24:23;17.50;66.20
6307;DHT22;3186;54.062;9.962;2023-06-14T05:26:49;17.50;67.20
6307;DHT22;3186;54.062;9.962;2023-06-14T05:29:15;17.60;67.30
6307;DHT22;3186;54.062;9.962;2023-06-14T05:31:40;17.60;72.80
6307;DHT22;3186;54.062;9.962;2023-06-14T05:36:32;17.90;65.80
6307;DHT22;3186;54.062;9.962;2023-06-14T05:38:58;17.90;64.90
6307;DHT22;3186;54.062;9.962;2023-06-14T05:41:26;18.00;85.10
6307;DHT22;3186;54.062;9.962;2023-06-14T05:43:53;18.10;64.20
6307;DHT22;3186;54.062;9.962;2023-06-14T05:46:19;18.20;63.80
6307;DHT22;3186;54.062;9.962;2023-06-14T05:48:53;18.40;63.30
6307;DHT22;3186;54.062;9.962;2023-06-14T05:51:19;18.50;57.50
6307;DHT22;3186;54.062;9.962;2023-06-14T05:53:46;18.60;58.30
6307;DHT22;3186;54.062;9.962;2023-06-14T05:56:12;18.80;67.80
6307;DHT22;3186;54.062;9.962;2023-06-14T05:58:38;18.90;52.30
6307;DHT22;3186;54.062;9.962;2023-06-14T06:01:04;19.00;50.30
6307;DHT22;3186;54.062;9.962;2023-06-14T06:03:30;19.10;72.70
6307;DHT22;3186;54.062;9.962;2023-06-14T06:05:56;19.20;51.90
6307;DHT22;3186;54.062;9.962;2023-06-14T06:08:21;19.30;55.60
6307;DHT22;3186;54.062;9.962;2023-06-14T06:10:47;19.40;50.10
6307;DHT22;3186;54.062;9.962;2023-06-14T06:13:13;19.60;49.60
6307;DHT22;3186;54.062;9.962;2023-06-14T06:15:40;19.80;51.60
6307;DHT22;3186;54.062;9.962;2023-06-14T06:18:06;19.90;49.60
6307;DHT22;3186;54.062;9.962;2023-06-14T06:20:32;20.00;47.60
6307;DHT22;3186;54.062;9.962;2023-06-14T06:22:58;20.20;44.80
6307;DHT22;3186;54.062;9.962;2023-06-14T06:25:25;20.30;45.00
6307;DHT22;3186;54.062;9.962;2023-06-14T06:27:53;20.30;45.80
6307;DHT22;3186;54.062;9.962;2023-06-14T06:30:19;20.60;47.70
6307;DHT22;3186;54.062;9.962;2023-06-14T06:32:46;20.70;55.40
6307;DHT22;3186;54.062;9.962;2023-06-14T06:35:12;20.80;41.20
6307;DHT22;3186;54.062;9.962;2023-06-14T06:37:42;20.90;38.20
6307;DHT22;3186;54.062;9.962;2023-06-14T06:40:08;21.00;39.70
6307;DHT22;3186;54.062;9.962;2023-06-14T06:42:34;21.10;34.80
6307;DHT22;3186;54.062;9.962;2023-06-14T06:45:03;21.30;36.40
6307;DHT22;3186;54.062;9.962;2023-06-14T06:47:29;21.40;38.00
6307;DHT22;3186;54.062;9.962;2023-06-14T06:49:54;21.70;36.60
6307;DHT22;3186;54.062;9.962;2023-06-14T06:52:20;21.90;36.10
6307;DHT22;3186;54.062;9.962;2023-06-14T06:54:46;22.20;29.20
6307;DHT22;3186;54.062;9.962;2023-06-14T06:57:12;22.20;35.10
6307;DHT22;3186;54.062;9.962;2023-06-14T06:59:38;22.40;30.70
6307;DHT22;3186;54.062;9.962;2023-06-14T07:02:04;22.60;29.30
6307;DHT22;3186;54.062;9.962;2023-06-14T07:04:30;22.90;26.60
6307;DHT22;3186;54.062;9.962;2023-06-14T07:06:56;22.90;24.20
6307;DHT22;3186;54.062;9.962;2023-06-14T07:09:22;23.20;27.20
6307;DHT22;3186;54.062;9.962;2023-06-14T07:11:48;23.30;23.60
6307;DHT22;3186;54.062;9.962;2023-06-14T07:14:14;23.40;22.40
6307;DHT22;3186;54.062;9.962;2023-06-14T07:16:40;23.30;18.10
6307;DHT22;3186;54.062;9.962;2023-06-14T07:19:06;23.30;19.70
6307;DHT22;3186;54.062;9.962;2023-06-14T07:21:32;23.40;19.90
6307;DHT22;3186;54.062;9.962;2023-06-14T07:23:58;23.60;21.80
6307;DHT22;3186;54.062;9.962;2023-06-14T07:26:24;24.10;22.10
6307;DHT22;3186;54.062;9.962;2023-06-14T07:28:50;24.10;18.30
6307;DHT22;3186;54.062;9.962;2023-06-14T07:31:16;24.40;18.60
6307;DHT22;3186;54.062;9.962;2023-06-14T07:33:43;24.60;15.80
6307;DHT22;3186;54.062;9.962;2023-06-14T07:36:09;24.60;13.90
6307;DHT22;3186;54.062;9.962;2023-06-14T07:38:35;24.80;15.70
6307;DHT22;3186;54.062;9.962;2023-06-14T07:41:02;24.90;13.30
6307;DHT22;3186;54.062;9.962;2023-06-14T07:43:28;24.90;12.60
6307;DHT22;3186;54.062;9.962;2023-06-14T07:45:54;25.30;14.20
6307;DHT22;3186;54.062;9.962;2023-06-14T07:48:20;25.20;9.50
6307;DHT22;3186;54.062;9.962;2023-06-14T07:50:46;25.00;12.00
6307;DHT22;3186;54.062;9.962;2023-06-14T07:53:12;25.20;10.90
6307;DHT22;3186;54.062;9.962;2023-06-14T07:55:38;25.50;9.00
6307;DHT22;3186;54.062;9.962;2023-06-14T07:58:06;25.40;9.20
6307;DHT22;3186;54.062;9.962;2023-06-14T08:00:32;26.70;10.20
6307;DHT22;3186;54.062;9.962;2023-06-14T08:02:57;25.50;8.20
6307;DHT22;3186;54.062;9.962;2023-06-14T08:05:25;26.10;6.60
6307;DHT22;3186;54.062;9.962;2023-06-14T08:07:54;26.10;7.10
6307;DHT22;3186;54.062;9.962;2023-06-14T08:10:21;26.00;8.60
6307;DHT22;3186;54.062;9.962;2023-06-14T08:12:47;25.90;7.10
6307;DHT22;3186;54.062;9.962;2023-06-14T08:15:16;25.90;6.60
6307;DHT22;3186;54.062;9.962;2023-06-14T08:17:45;26.00;7.80
6307;DHT22;3186;54.062;9.962;2023-06-14T08:20:11;26.20;8.10
6307;DHT22;3186;54.062;9.962;2023-06-14T08:22:37;26.40;6.20
6307;DHT22;3186;54.062;9.962;2023-06-14T08:25:04;26.60;5.90
6307;DHT22;3186;54.062;9.962;2023-06-14T08:27:30;26.80;10.10
6307;DHT22;3186;54.062;9.962;2023-06-14T08:29:56;26.90;6.20
6307;DHT22;3186;54.062;9.962;2023-06-14T08:32:22;27.10;6.10
6307;DHT22;3186;54.062;9.962;2023-06-14T08:34:48;26.50;4.10
6307;DHT22;3186;54.062;9.962;2023-06-14T08:37:14;26.50;2.30
6307;DHT22;3186;54.062;9.962;2023-06-14T08:39:40;27.10;7.60
6307;DHT22;3186;54.062;9.962;2023-06-14T08:42:07;27.20;4.40
6307;DHT22;3186;54.062;9.962;2023-06-14T08:44:34;27.10;6.00
6307;DHT22;3186;54.062;9.962;2023-06-14T08:47:00;27.20;7.50
6307;DHT22;3186;54.062;9.962;2023-06-14T08:49:29;27.90;7.00
6307;DHT22;3186;54.062;9.962;2023-06-14T08:51:58;27.90;2.00
6307;DHT22;3186;54.062;9.962;2023-06-14T08:54:28;27.90;1.00
6307;DHT22;3186;54.062;9.962;2023-06-14T08:57:04;27.80;2.20
6307;DHT22;3186;54.062;9.962;2023-06-14T08:59:34;28.00;5.00
6307;DHT22;3186;54.062;9.962;2023-06-14T09:02:06;28.20;5.20
6307;DHT22;3186;54.062;9.962;2023-06-14T09:04:32;28.40;2.10
6307;DHT22;3186;54.062;9.962;2023-06-14T09:06:59;28.40;3.90
6307;DHT22;3186;54.062;9.962;2023-06-14T09:09:25;28.80;1.90
6307;DHT22;3186;54.062;9.962;2023-06-14T09:11:52;29.00;2.80
6307;DHT22;3186;54.062;9.962;2023-06-14T09:14:24;28.80;3.10
6307;DHT22;3186;54.062;9.962;2023-06-14T09:16:54;29.00;2.00
6307;DHT22;3186;54.062;9.962;2023-06-14T09:19:24;28.90;3.00
6307;DHT22;3186;54.062;9.962;2023-06-14T09:21:50;29.00;3.70
6307;DHT22;3186;54.062;9.962;2023-06-14T09:24:19;29.50;3.30
6307;DHT22;3186;54.062;9.962;2023-06-14T09:26:47;29.40;3.40
6307;DHT22;3186;54.062;9.962;2023-06-14T09:29:13;29.20;1.70
6307;DHT22;3186;54.062;9.962;2023-06-14T09:31:39;29.30;1.00
6307;DHT22;3186;54.062;9.962;2023-06-14T09:34:05;29.00;1.00
6307;DHT22;3186;54.062;9.962;2023-06-14T09:36:32;29.00;1.00
6307;DHT22;3186;54.062;9.962;2023-06-14T09:38:59;29.00;1.20
6307;DHT22;3186;54.062;9.962;2023-06-14T09:41:37;29.50;1.60
6307;DHT22;3186;54.062;9.962;2023-06-14T09:44:06;29.60;1.00
6307;DHT22;3186;54.062;9.962;2023-06-14T09:46:33;30.00;1.20
6307;DHT22;3186;54.062;9.962;2023-06-14T09:48:59;30.10;1.70
6307;DHT22;3186;54.062;9.962;2023-06-14T09:51:26;29.60;1.00
6307;DHT22;3186;54.062;9.962;2023-06-14T09:53:55;29.60;3.70
6307;DHT22;3186;54.062;9.962;2023-06-14T09:58:58;30.20;2.00
6307;DHT22;3186;54.062;9.962;2023-06-14T10:01:25;30.10;1.00
6307;DHT22;3186;54.062;9.962;2023-06-14T10:04:06;30.20;1.00
6307;DHT22;3186;54.062;9.962;2023-06-14T10:06:37;30.20;1.00
6307;DHT22;3186;54.062;9.962;2023-06-14T10:09:08;30.10;1.60
6307;DHT22;3186;54.062;9.962;2023-06-14T10:11:35;30.10;1.00
6307;DHT22;3186;54.062;9.962;2023-06-14T10:14:02;30.00;1.80
6307;DHT22;3186;54.062;9.962;2023-06-14T10:16:32;30.20;1.40
6307;DHT22;3186;54.062;9.962;2023-06-14T10:24:10;30.50;1.00
6307;DHT22;3186;54.062;9.962;2023-06-14T10:26:57;30.50;1.00
6307;DHT22;3186;54.062;9.962;2023-06-14T10:29:23;30.50;1.00
6307;DHT22;3186;54.062;9.962;2023-06-14T10:31:54;30.10;1.00
6307;DHT22;3186;54.062;9.962;2023-06-14T10:34:22;30.40;1.80
6307;DHT22;3186;54.062;9.962;2023-06-14T10:37:04;30.80;1.00
6307;DHT22;3186;54.062;9.962;2023-06-14T10:39:36;30.70;1.00
6307;DHT22;3186;54.062;9.962;2023-06-14T10:42:02;30.70;1.00
6307;DHT22;3186;54.062;9.962;2023-06-14T10:46:58;30.80;1.00
6307;DHT22;3186;54.062;9.962;2023-06-14T10:49:41;31.10;1.00
6307;DHT22;3186;54.062;9.962;2023-06-14T10:52:11;31.30;1.00
6307;DHT22;3186;54.062;9.962;2023-06-14T10:55:14;31.40;1.00
6307;DHT22;3186;54.062;9.962;2023-06-14T11:00:14;30.80;1.00
6307;DHT22;3186;54.062;9.962;2023-06-14T11:05:48;31.00;1.00
6307;DHT22;3186;54.062;9.962;2023-06-14T11:11:09;31.10;1.00
6307;DHT22;3186;54.062;9.962;2023-06-14T11:13:44;31.50;1.00
6307;DHT22;3186;54.062;9.962;2023-06-14T11:16:17;30.70;1.00
6307;DHT22;3186;54.062;9.962;2023-06-14T11:18:44;31.10;1.00
6307;DHT22;3186;54.062;9.962;2023-06-14T11:21:14;30.80;1.00
6307;DHT22;3186;54.062;9.962;2023-06-14T11:23:40;31.50;1.00
6307;DHT22;3186;54.062;9.962;2023-06-14T11:26:06;31.20;1.00
6307;DHT22;3186;54.062;9.962;2023-06-14T11:31:07;31.90;1.00
6307;DHT22;3186;54.062;9.962;2023-06-14T11:33:34;32.00;1.00
6307;DHT22;3186;54.062;9.962;2023-06-14T11:36:03;31.90;1.00
6307;DHT22;3186;54.062;9.962;2023-06-14T11:38:30;31.80;1.00
6307;DHT22;3186;54.062;9.962;2023-06-14T11:40:59;31.80;1.00
6307;DHT22;3186;54.062;9.962;2023-06-14T11:43:26;31.80;1.00
6307;DHT22;3186;54.062;9.962;2023-06-14T11:45:53;31.80;1.00
6307;DHT22;3186;54.062;9.962;2023-06-14T11:48:18;32.00;1.00
6307;DHT22;3186;54.062;9.962;2023-06-14T11:50:49;32.10;1.00
6307;DHT22;3186;54.062;9.962;2023-06-14T11:55:42;32.50;1.00
6307;DHT22;3186;54.062;9.962;2023-06-14T11:58:10;32.60;1.00
6307;DHT22;3186;54.062;9.962;2023-06-14T12:00:37;32.30;1.00
6307;DHT22;3186;54.062;9.962;2023-06-14T12:03:03;32.50;1.00
6307;DHT22;3186;54.062;9.962;2023-06-14T12:05:29;32.20;1.00
6307;DHT22;3186;54.062;9.962;2023-06-14T12:07:59;32.20;1.00
6307;DHT22;3186;54.062;9.962;2023-06-14T12:10:26;32.50;1.00
6307;DHT22;3186;54.062;9.962;2023-06-14T12:12:57;32.70;1.00
6307;DHT22;3186;54.062;9.962;2023-06-14T12:15:24;32.80;1.00
6307;DHT22;3186;54.062;9.962;2023-06-14T12:17:49;32.80;1.00
6307;DHT22;3186;54.062;9.962;2023-06-14T12:20:19;32.80;1.00
6307;DHT22;3186;54.062;9.962;2023-06-14T12:22:54;33.20;1.00
6307;DHT22;3186;54.062;9.962;2023-06-14T12:25:33;32.80;1.00
6307;DHT22;3186;54.062;9.962;2023-06-14T12:28:05;32.80;1.00
6307;DHT22;3186;54.062;9.962;2023-06-14T12:30:32;32.90;1.00
6307;DHT22;3186;54.062;9.962;2023-06-14T12:32:57;33.10;1.00
6307;DHT22;3186;54.062;9.962;2023-06-14T12:35:23;33.00;1.00
6307;DHT22;3186;54.062;9.962;2023-06-14T12:37:49;33.20;1.00
6307;DHT22;3186;54.062;9.962;2023-06-14T12:40:15;32.60;1.00
6307;DHT22;3186;54.062;9.962;2023-06-14T12:42:41;32.70;1.00
6307;DHT22;3186;54.062;9.962;2023-06-14T12:45:08;32.70;1.00
6307;DHT22;3186;54.062;9.962;2023-06-14T12:47:34;33.10;1.00
6307;DHT22;3186;54.062;9.962;2023-06-14T12:50:00;32.90;1.00
6307;DHT22;3186;54.062;9.962;2023-06-14T12:52:26;32.60;1.00
6307;DHT22;3186;54.062;9.962;2023-06-14T12:54:52;32.70;1.00
6307;DHT22;3186;54.062;9.962;2023-06-14T12:57:18;32.60;1.00
6307;DHT22;3186;54.062;9.962;2023-06-14T12:59:44;32.70;1.00
6307;DHT22;3186;54.062;9.962;2023-06-14T13:02:14;32.50;1.00
6307;DHT22;3186;54.062;9.962;2023-06-14T13:04:40;33.10;1.00
6307;DHT22;3186;54.062;9.962;2023-06-14T13:07:06;33.10;1.00
6307;DHT22;3186;54.062;9.962;2023-06-14T13:09:32;33.50;1.00
6307;DHT22;3186;54.062;9.962;2023-06-14T13:11:57;33.40;1.00
6307;DHT22;3186;54.062;9.962;2023-06-14T13:14:23;33.40;1.00
6307;DHT22;3186;54.062;9.962;2023-06-14T13:16:50;32.90;1.00
6307;DHT22;3186;54.062;9.962;2023-06-14T13:21:42;32.40;1.00
6307;DHT22;3186;54.062;9.962;2023-06-14T13:26:34;31.90;1.00
6307;DHT22;3186;54.062;9.962;2023-06-14T13:29:00;32.20;1.00
6307;DHT22;3186;54.062;9.962;2023-06-14T13:31:26;32.50;1.00
6307;DHT22;3186;54.062;9.962;2023-06-14T13:33:52;31.90;1.00
6307;DHT22;3186;54.062;9.962;2023-06-14T13:38:44;32.60;1.00
6307;DHT22;3186;54.062;9.962;2023-06-14T13:41:09;32.30;1.00
6307;DHT22;3186;54.062;9.962;2023-06-14T13:43:35;32.20;1.00
6307;DHT22;3186;54.062;9.962;2023-06-14T13:46:01;32.40;1.00
6307;DHT22;3186;54.062;9.962;2023-06-14T13:48:27;32.40;1.00
6307;DHT22;3186;54.062;9.962;2023-06-14T13:53:19;32.00;1.00
6307;DHT22;3186;54.062;9.962;2023-06-14T13:55:44;32.00;1.00
6307;DHT22;3186;54.062;9.962;2023-06-14T13:58:10;32.10;1.00
6307;DHT22;3186;54.062;9.962;2023-06-14T14:00:36;32.00;1.00
6307;DHT22;3186;54.062;9.962;2023-06-14T14:03:06;31.90;1.00
6307;DHT22;3186;54.062;9.962;2023-06-14T14:08:00;32.30;1.00
6307;DHT22;3186;54.062;9.962;2023-06-14T14:12:52;32.20;1.00
6307;DHT22;3186;54.062;9.962;2023-06-14T14:15:20;32.10;1.00
6307;DHT22;3186;54.062;9.962;2023-06-14T14:17:46;32.20;1.00
6307;DHT22;3186;54.062;9.962;2023-06-14T14:20:12;32.00;1.00
6307;DHT22;3186;54.062;9.962;2023-06-14T14:22:42;32.30;1.00
6307;DHT22;3186;54.062;9.962;2023-06-14T14:25:08;31.90;1.00
6307;DHT22;3186;54.062;9.962;2023-06-14T14:27:34;32.10;1.00
6307;DHT22;3186;54.062;9.962;2023-06-14T14:30:00;32.20;1.00
6307;DHT22;3186;54.062;9.962;2023-06-14T14:32:26;32.40;1.00
6307;DHT22;3186;54.062;9.962;2023-06-14T14:34:52;32.50;1.00
6307;DHT22;3186;54.062;9.962;2023-06-14T14:39:44;32.30;1.00
6307;DHT22;3186;54.062;9.962;2023-06-14T14:42:11;32.40;1.00
6307;DHT22;3186;54.062;9.962;2023-06-14T14:47:05;32.40;1.00
6307;DHT22;3186;54.062;9.962;2023-06-14T14:49:31;32.30;1.00
6307;DHT22;3186;54.062;9.962;2023-06-14T14:51:57;32.40;1.00
6307;DHT22;3186;54.062;9.962;2023-06-14T14:54:23;32.60;1.00
6307;DHT22;3186;54.062;9.962;2023-06-14T14:59:17;32.50;1.00
6307;DHT22;3186;54.062;9.962;2023-06-14T15:01:44;32.60;1.00
6307;DHT22;3186;54.062;9.962;2023-06-14T15:04:11;32.60;1.00
6307;DHT22;3186;54.062;9.962;2023-06-14T15:06:37;32.20;1.00
6307;DHT22;3186;54.062;9.962;2023-06-14T15:09:05;32.20;1.00
6307;DHT22;3186;54.062;9.962;2023-06-14T15:11:31;32.30;1.00
6307;DHT22;3186;54.062;9.962;2023-06-14T15:13:57;32.30;1.00
6307;DHT22;3186;54.062;9.962;2023-06-14T15:16:23;32.30;1.00
6307;DHT22;3186;54.062;9.962;2023-06-14T15:18:49;32.40;1.00
6307;DHT22;3186;54.062;9.962;2023-06-14T15:23:43;32.40;1.00
6307;DHT22;3186;54.062;9.962;2023-06-14T15:26:09;32.50;1.00
6307;DHT22;3186;54.062;9.962;2023-06-14T15:28:35;32.60;1.00
6307;DHT22;3186;54.062;9.962;2023-06-14T15:31:02;32.50;1.00
6307;DHT22;3186;54.062;9.962;2023-06-14T15:33:28;32.40;1.00
6307;DHT22;3186;54.062;9.962;2023-06-14T15:35:53;32.40;1.00
6307;DHT22;3186;54.062;9.962;2023-06-14T15:38:23;32.10;1.00
6307;DHT22;3186;54.062;9.962;2023-06-14T15:40:48;32.40;1.00
6307;DHT22;3186;54.062;9.962;2023-06-14T15:45:40;32.20;1.00
6307;DHT22;3186;54.062;9.962;2023-06-14T15:48:09;32.20;1.00
6307;DHT22;3186;54.062;9.962;2023-06-14T15:50:35;32.20;1.00
6307;DHT22;3186;54.062;9.962;2023-06-14T15:53:02;32.20;1.00
6307;DHT22;3186;54.062;9.962;2023-06-14T15:55:28;32.00;1.00
6307;DHT22;3186;54.062;9.962;2023-06-14T15:57:54;32.00;1.00
6307;DHT22;3186;54.062;9.962;2023-06-14T16:00:20;32.20;1.00
6307;DHT22;3186;54.062;9.962;2023-06-14T16:02:46;31.80;1.00
6307;DHT22;3186;54.062;9.962;2023-06-14T16:05:13;32.20;1.00
6307;DHT22;3186;54.062;9.962;2023-06-14T16:07:38;32.10;1.00
6307;DHT22;3186;54.062;9.962;2023-06-14T16:10:04;32.50;1.00
6307;DHT22;3186;54.062;9.962;2023-06-14T16:12:30;32.50;1.00
6307;DHT22;3186;54.062;9.962;2023-06-14T16:14:56;32.40;1.00
6307;DHT22;3186;54.062;9.962;2023-06-14T16:17:22;32.30;1.00
6307;DHT22;3186;54.062;9.962;2023-06-14T16:19:48;32.40;1.00
6307;DHT22;3186;54.062;9.962;2023-06-14T16:22:13;32.40;1.00
6307;DHT22;3186;54.062;9.962;2023-06-14T16:24:39;32.20;1.00
6307;DHT22;3186;54.062;9.962;2023-06-14T16:27:05;32.80;1.00
6307;DHT22;3186;54.062;9.962;2023-06-14T16:32:00;31.90;1.00
6307;DHT22;3186;54.062;9.962;2023-06-14T16:34:26;31.90;1.00
6307;DHT22;3186;54.062;9.962;2023-06-14T16:36:52;31.80;1.00
6307;DHT22;3186;54.062;9.962;2023-06-14T16:39:17;31.80;1.00
6307;DHT22;3186;54.062;9.962;2023-06-14T16:41:43;31.70;1.00
6307;DHT22;3186;54.062;9.962;2023-06-14T16:44:09;31.80;1.00
6307;DHT22;3186;54.062;9.962;2023-06-14T16:46:35;31.50;1.00
6307;DHT22;3186;54.062;9.962;2023-06-14T16:49:02;31.50;1.00
6307;DHT22;3186;54.062;9.962;2023-06-14T16:51:28;31.50;1.00
6307;DHT22;3186;54.062;9.962;2023-06-14T16:53:54;31.50;1.00
6307;DHT22;3186;54.062;9.962;2023-06-14T16:56:21;31.50;1.00
6307;DHT22;3186;54.062;9.962;2023-06-14T16:58:55;31.20;1.00
6307;DHT22;3186;54.062;9.962;2023-06-14T17:06:40;31.30;1.00
6307;DHT22;3186;54.062;9.962;2023-06-14T17:31:03;31.10;1.00
6307;DHT22;3186;54.062;9.962;2023-06-14T17:48:09;30.60;1.00
6307;DHT22;3186;54.062;9.962;2023-06-14T18:00:25;30.60;1.00
6307;DHT22;3186;54.062;9.962;2023-06-14T18:24:46;29.70;1.00
6307;DHT22;3186;54.062;9.962;2023-06-14T18:27:12;29.70;1.00
6307;DHT22;3186;54.062;9.962;2023-06-14T18:29:38;29.60;1.00
6307;DHT22;3186;54.062;9.962;2023-06-14T18:34:30;29.40;1.00
6307;DHT22;3186;54.062;9.962;2023-06-14T18:36:55;29.40;1.00
6307;DHT22;3186;54.062;9.962;2023-06-14T18:39:22;29.10;1.00
6307;DHT22;3186;54.062;9.962;2023-06-14T18:41:48;29.00;1.00
6307;DHT22;3186;54.062;9.962;2023-06-14T19:06:21;28.00;1.00